Time;durP1;ratioP1;P1;durP2;ratioP2;P2;SDS_P1;SDS_P2;PMS_P1;PMS_P2;Temp;Humidity;BMP_temperature;BMP_pressure;BME280_temperature;BME280_humidity;BME280_pressure;Samples;Min_cycle;Max_cycle;Signal;HPM_P1;HPM_P2
2022/08/12 00:43:53;;;;;;;9.20;4.40;;;26.20;56.90;;;;;;5025416;28;20137;-58
2022/08/12 00:46:30;;;;;;;7.32;4.18;;;26.20;56.80;;;;;;5025569;28;20928;-59
2022/08/12 00:48:56;;;;;;;7.72;4.07;;;26.20;56.80;;;;;;5047899;28;20568;-58
2022/08/12 00:51:22;;;;;;;7.93;3.72;;;26.20;56.80;;;;;;5050002;28;20388;-59
2022/08/12 00:53:47;;;;;;;6.97;4.20;;;26.20;56.80;;;;;;5054229;28;20446;-58
2022/08/12 00:56:13;;;;;;;8.38;4.05;;;26.20;56.90;;;;;;5025723;28;20474;-59
2022/08/12 00:58:45;;;;;;;8.52;4.20;;;26.20;56.90;;;;;;5023976;28;20398;-58
2022/08/12 01:01:10;;;;;;;7.95;4.10;;;26.20;56.80;;;;;;5024181;28;20026;-59
2022/08/12 01:11:51;;;;;;;7.05;3.95;;;26.20;56.90;;;;;;5026578;28;20031;-59
2022/08/12 01:14:18;;;;;;;6.63;3.92;;;26.10;56.80;;;;;;5027368;28;20422;-58
2022/08/12 01:16:45;;;;;;;7.53;4.20;;;26.10;56.90;;;;;;5030840;28;20936;-58
2022/08/12 01:19:11;;;;;;;6.75;4.00;;;26.10;56.80;;;;;;5033990;28;20025;-58
2022/08/12 01:22:03;;;;;;;7.28;3.92;;;26.10;56.90;;;;;;5057938;28;20128;-58
2022/08/12 01:24:54;;;;;;;6.15;3.83;;;26.10;56.90;;;;;;5031794;28;20125;-58
2022/08/12 01:27:21;;;;;;;7.15;4.10;;;26.10;56.90;;;;;;5029647;28;20029;-58
2022/08/12 01:29:47;;;;;;;6.97;3.95;;;26.10;56.90;;;;;;5013323;28;20033;-59
2022/08/12 01:32:14;;;;;;;7.55;4.03;;;26.10;56.90;;;;;;5031121;28;20151;-59
2022/08/12 01:34:45;;;;;;;6.45;4.05;;;26.10;56.90;;;;;;5028102;28;20496;-58
2022/08/12 01:37:10;;;;;;;6.57;3.80;;;26.10;56.90;;;;;;5031232;28;20025;-59
2022/08/12 01:39:42;;;;;;;7.25;4.07;;;26.10;56.90;;;;;;5034631;28;20025;-58
2022/08/12 01:42:08;;;;;;;5.43;3.78;;;26.10;56.90;;;;;;5056116;28;20036;-58
2022/08/12 01:44:34;;;;;;;7.68;4.35;;;26.10;56.90;;;;;;5032231;28;20022;-58
2022/08/12 01:47:15;;;;;;;6.28;4.00;;;26.10;56.90;;;;;;5030503;28;20034;-59
2022/08/12 01:50:25;;;;;;;7.93;3.90;;;26.10;56.90;;;;;;5031376;28;20041;-59
2022/08/12 01:52:53;;;;;;;8.02;3.88;;;26.10;56.90;;;;;;5026503;28;20102;-58
2022/08/12 01:55:31;;;;;;;6.95;4.20;;;26.10;57.00;;;;;;5020677;28;20049;-58
2022/08/12 01:58:10;;;;;;;6.20;3.53;;;26.10;57.00;;;;;;5021462;28;20053;-58
2022/08/12 02:00:50;;;;;;;6.00;3.63;;;26.00;56.90;;;;;;5024488;28;20072;-58
2022/08/12 02:12:20;;;;;;;6.75;3.70;;;26.00;56.90;;;;;;5020788;28;20028;-58
2022/08/12 02:14:57;;;;;;;6.80;3.80;;;26.00;57.00;;;;;;5004985;28;20029;-58
2022/08/12 02:17:31;;;;;;;8.48;3.90;;;26.00;57.00;;;;;;4993321;28;20842;-58
2022/08/12 02:20:12;;;;;;;;;;;26.00;57.00;;;;;;5023129;28;20037;-59
2022/08/12 02:22:43;;;;;;;7.40;3.80;;;26.00;57.00;;;;;;5005017;28;20354;-58
2022/08/12 02:25:25;;;;;;;6.55;4.03;;;26.00;57.00;;;;;;5008352;28;20511;-58
2022/08/12 02:27:52;;;;;;;6.55;3.80;;;26.00;57.00;;;;;;5003952;28;20107;-58
2022/08/12 02:30:19;;;;;;;6.47;3.55;;;26.00;57.00;;;;;;5023707;28;20523;-58
2022/08/12 02:32:46;;;;;;;7.20;3.60;;;26.00;57.00;;;;;;5027008;28;20018;-58
2022/08/12 02:35:18;;;;;;;6.80;3.70;;;26.00;57.10;;;;;;5027969;28;20119;-58
2022/08/12 02:37:45;;;;;;;7.63;3.95;;;25.90;56.90;;;;;;5029648;28;20021;-58
2022/08/12 02:40:11;;;;;;;6.35;3.53;;;25.90;57.00;;;;;;5027592;28;20044;-58
2022/08/12 02:42:42;;;;;;;5.93;3.78;;;25.90;57.00;;;;;;5027928;28;20036;-58
2022/08/12 02:45:08;;;;;;;6.85;3.90;;;25.90;57.00;;;;;;5028765;28;20121;-58
2022/08/12 02:47:38;;;;;;;5.78;3.70;;;25.90;57.00;;;;;;5039596;28;20108;-59
2022/08/12 02:50:04;;;;;;;7.32;3.58;;;25.90;57.10;;;;;;5011319;28;20089;-58
2022/08/12 02:52:31;;;;;;;5.68;3.65;;;25.90;57.10;;;;;;5029255;28;20033;-58
2022/08/12 02:55:02;;;;;;;6.55;3.88;;;25.90;57.00;;;;;;5039030;28;20895;-58
2022/08/12 02:57:28;;;;;;;6.32;3.83;;;25.90;57.10;;;;;;5026471;28;20517;-59
2022/08/12 02:59:54;;;;;;;6.07;3.55;;;25.90;57.10;;;;;;5042282;28;20029;-58
2022/08/12 03:02:21;;;;;;;6.25;3.70;;;25.90;57.00;;;;;;5026212;28;20556;-58
2022/08/12 03:04:51;;;;;;;6.07;3.75;;;25.90;57.10;;;;;;5026566;28;20509;-58
2022/08/12 03:07:23;;;;;;;6.15;3.72;;;25.90;57.10;;;;;;5024744;28;20033;-58
2022/08/12 03:10:09;;;;;;;6.38;3.95;;;25.90;57.10;;;;;;5023163;28;20029;-58
2022/08/12 03:12:40;;;;;;;7.70;3.97;;;25.90;57.10;;;;;;5024664;28;20029;-58
2022/08/12 03:15:10;;;;;;;6.38;3.83;;;25.90;57.10;;;;;;5028583;28;20116;-58
2022/08/12 03:18:15;;;;;;;6.68;3.90;;;25.90;57.10;;;;;;5026382;28;20660;-58
2022/08/12 03:20:41;;;;;;;6.25;4.00;;;25.90;57.10;;;;;;5023420;28;20037;-58
2022/08/12 03:23:10;;;;;;;6.70;3.85;;;25.80;57.00;;;;;;5028609;28;20037;-58
2022/08/12 03:25:38;;;;;;;7.18;3.67;;;25.80;57.10;;;;;;5026726;28;20481;-59
2022/08/12 03:28:04;;;;;;;6.65;3.90;;;25.80;57.10;;;;;;5026528;28;20044;-59
2022/08/12 03:30:31;;;;;;;6.95;3.78;;;25.80;57.10;;;;;;5041695;28;20037;-58
2022/08/12 03:32:57;;;;;;;6.90;3.65;;;25.80;57.10;;;;;;5028109;28;20025;-58
2022/08/12 03:35:29;;;;;;;5.60;3.60;;;25.80;57.10;;;;;;5027073;28;20040;-58
2022/08/12 03:38:00;;;;;;;8.10;4.00;;;25.80;57.10;;;;;;5029942;28;20056;-59
2022/08/12 04:02:24;;;;;;;5.80;3.70;;;25.80;57.10;;;;;;5024595;28;20418;-59
2022/08/12 04:04:49;;;;;;;6.03;3.80;;;25.70;57.10;;;;;;5026985;28;20018;-59
2022/08/12 04:07:15;;;;;;;6.60;3.60;;;25.70;57.10;;;;;;5026824;28;20033;-58
2022/08/12 04:09:42;;;;;;;5.78;3.60;;;25.70;57.10;;;;;;5024547;28;20402;-59
2022/08/12 04:14:53;;;;;;;6.63;4.18;;;25.70;57.10;;;;;;5026065;28;20084;-58
2022/08/12 04:17:18;;;;;;;7.00;3.95;;;25.70;57.10;;;;;;5025405;28;20033;-58
2022/08/12 04:19:46;;;;;;;6.05;3.45;;;25.70;57.10;;;;;;5027199;28;20090;-58
2022/08/12 04:22:12;;;;;;;5.57;3.67;;;25.70;57.10;;;;;;5025945;28;20402;-59
2022/08/12 04:24:38;;;;;;;7.40;3.90;;;25.70;57.20;;;;;;5024522;28;20021;-58
2022/08/12 04:27:05;;;;;;;6.40;3.55;;;25.60;57.20;;;;;;5026621;28;20030;-58
2022/08/12 04:29:33;;;;;;;6.10;3.80;;;25.70;57.20;;;;;;5026040;28;20041;-58
2022/08/12 04:31:58;;;;;;;7.30;4.00;;;25.70;57.20;;;;;;5024811;28;20025;-58
2022/08/12 04:34:24;;;;;;;6.10;3.90;;;25.60;57.10;;;;;;5027898;28;20040;-58
2022/08/12 04:36:52;;;;;;;5.75;3.55;;;25.60;57.20;;;;;;5025721;28;20032;-59
2022/08/12 04:39:19;;;;;;;6.20;3.80;;;25.60;57.30;;;;;;5029810;28;20402;-58
2022/08/12 04:41:44;;;;;;;6.13;3.90;;;25.60;57.20;;;;;;5024818;28;20465;-59
2022/08/12 04:44:10;;;;;;;5.57;3.70;;;25.60;57.20;;;;;;5025287;28;20118;-58
2022/08/12 04:46:36;;;;;;;6.43;3.50;;;25.60;57.20;;;;;;5029467;28;20637;-59
2022/08/12 04:49:02;;;;;;;6.00;3.85;;;25.60;57.20;;;;;;5021125;28;20406;-58
2022/08/12 04:51:28;;;;;;;5.22;3.47;;;25.60;57.20;;;;;;5029027;28;20051;-59
2022/08/12 04:53:54;;;;;;;5.97;3.80;;;25.60;57.20;;;;;;5023850;28;20718;-59
2022/08/12 04:56:20;;;;;;;6.25;3.85;;;25.60;57.30;;;;;;5024301;28;20064;-59
2022/08/12 04:58:45;;;;;;;6.00;4.03;;;25.60;57.20;;;;;;5024856;28;20029;-58
2022/08/12 05:01:11;;;;;;;5.18;3.40;;;25.60;57.30;;;;;;5024066;28;20067;-59
2022/08/12 05:03:37;;;;;;;6.68;3.80;;;25.60;57.30;;;;;;5024861;28;20437;-58
2022/08/12 05:06:04;;;;;;;6.15;3.88;;;25.60;57.30;;;;;;5022547;28;20041;-59
2022/08/12 05:08:30;;;;;;;7.03;3.65;;;25.60;57.30;;;;;;5028736;28;20017;-60
2022/08/12 05:10:56;;;;;;;6.75;3.55;;;25.60;57.30;;;;;;5025180;28;20044;-59
2022/08/12 05:13:43;;;;;;;6.55;3.70;;;25.60;57.20;;;;;;5019862;28;20026;-59
2022/08/12 05:16:08;;;;;;;5.90;3.78;;;25.60;57.10;;;;;;5023905;28;20077;-59
2022/08/12 05:18:38;;;;;;;7.22;3.63;;;25.60;57.20;;;;;;5026319;28;21489;-59
2022/08/12 05:21:04;;;;;;;7.05;3.80;;;25.60;57.10;;;;;;5025049;28;20040;-59
2022/08/12 05:23:31;;;;;;;5.72;3.83;;;25.60;57.30;;;;;;5027212;28;20087;-59
2022/08/12 05:25:58;;;;;;;7.55;3.70;;;25.60;57.20;;;;;;5025794;28;20029;-58
2022/08/12 05:28:25;;;;;;;8.25;3.72;;;25.60;57.30;;;;;;5026046;28;20057;-58
2022/08/12 05:30:51;;;;;;;7.07;3.88;;;25.50;57.30;;;;;;5027207;28;20385;-58
2022/08/12 05:33:17;;;;;;;8.80;4.70;;;25.50;57.40;;;;;;5026143;28;20019;-59
2022/08/12 05:35:43;;;;;;;7.10;3.60;;;25.50;57.50;;;;;;5024246;28;20159;-59
2022/08/12 05:40:54;;;;;;;8.25;4.03;;;25.50;57.50;;;;;;5026731;28;20036;-59
2022/08/12 05:43:21;;;;;;;7.95;4.20;;;25.50;57.50;;;;;;5024410;28;20033;-59
2022/08/12 05:45:47;;;;;;;7.78;4.00;;;25.50;57.60;;;;;;5026987;28;20503;-58
2022/08/12 05:48:13;;;;;;;8.07;4.03;;;25.50;57.60;;;;;;5026012;28;20080;-59
2022/08/12 05:50:39;;;;;;;10.10;4.00;;;25.50;57.80;;;;;;5026469;28;20068;-59
2022/08/12 05:53:05;;;;;;;8.07;3.90;;;25.50;57.70;;;;;;5026901;28;20698;-59
2022/08/12 05:55:31;;;;;;;7.97;4.13;;;25.50;57.80;;;;;;5024347;28;20049;-58
2022/08/12 05:57:57;;;;;;;8.88;4.00;;;25.50;57.80;;;;;;5027010;28;20021;-59
2022/08/12 06:00:24;;;;;;;7.50;4.30;;;25.40;57.80;;;;;;5028302;28;20032;-58
2022/08/12 06:02:55;;;;;;;8.45;4.15;;;25.40;57.80;;;;;;5026444;28;20082;-59
2022/08/12 06:05:22;;;;;;;9.82;4.10;;;25.40;57.80;;;;;;5028450;28;20025;-58
2022/08/12 06:07:48;;;;;;;6.85;4.05;;;25.40;57.80;;;;;;5029129;28;20033;-58
2022/08/12 06:10:15;;;;;;;8.20;4.10;;;25.50;57.90;;;;;;5030167;28;20110;-59
2022/08/12 06:12:41;;;;;;;7.75;4.03;;;25.40;57.90;;;;;;5027556;28;20033;-59
2022/08/12 06:15:07;;;;;;;9.43;4.10;;;25.40;57.90;;;;;;5028791;28;20486;-59
2022/08/12 06:17:33;;;;;;;7.88;4.22;;;25.50;58.00;;;;;;5031238;28;20505;-59
2022/08/12 06:19:58;;;;;;;7.72;4.00;;;25.40;57.90;;;;;;5029617;28;20038;-58
2022/08/12 06:22:25;;;;;;;8.02;4.10;;;25.40;58.00;;;;;;5032107;28;20371;-58
2022/08/12 06:24:54;;;;;;;11.18;4.18;;;25.40;58.00;;;;;;5053588;28;20041;-59
2022/08/12 06:27:20;;;;;;;6.70;4.13;;;25.40;58.00;;;;;;5027840;28;20031;-59
2022/08/12 06:29:46;;;;;;;7.38;4.10;;;25.40;58.00;;;;;;5027270;28;20050;-59
2022/08/12 06:32:12;;;;;;;7.13;4.03;;;25.40;58.10;;;;;;5029141;28;20482;-58
2022/08/12 06:34:38;;;;;;;6.68;3.80;;;25.40;58.10;;;;;;5029211;28;20448;-58
2022/08/12 06:37:06;;;;;;;8.63;4.43;;;25.40;58.10;;;;;;5028030;28;20034;-59
2022/08/12 06:39:31;;;;;;;6.50;4.00;;;25.40;58.00;;;;;;5029542;28;20033;-59
2022/08/12 06:44:41;;;;;;;7.20;3.97;;;25.40;58.10;;;;;;5025329;28;20051;-59
2022/08/12 06:47:07;;;;;;;9.48;4.00;;;25.40;58.20;;;;;;5026592;28;20406;-59
2022/08/12 06:49:35;;;;;;;7.45;3.80;;;25.40;58.20;;;;;;5029097;28;20514;-59
2022/08/12 06:52:03;;;;;;;7.03;4.10;;;25.40;58.10;;;;;;5026485;28;20380;-59
2022/08/12 06:54:29;;;;;;;7.10;3.95;;;25.40;58.20;;;;;;5028904;28;20026;-59
2022/08/12 06:56:55;;;;;;;6.85;3.88;;;25.40;58.20;;;;;;5027208;28;20049;-58
2022/08/12 06:59:21;;;;;;;7.82;4.18;;;25.40;58.20;;;;;;5031978;28;20041;-59
2022/08/12 07:01:47;;;;;;;7.20;4.40;;;25.40;58.20;;;;;;5027771;28;20030;-59
2022/08/12 07:04:14;;;;;;;7.95;3.92;;;25.40;58.20;;;;;;5028157;28;20093;-59
2022/08/12 07:06:40;;;;;;;8.23;4.60;;;25.40;58.30;;;;;;5028645;28;20037;-58
2022/08/12 07:09:06;;;;;;;7.72;4.10;;;25.40;58.30;;;;;;5028501;28;20041;-59
2022/08/12 07:11:32;;;;;;;9.15;4.40;;;25.40;58.40;;;;;;5023641;28;20482;-59
2022/08/12 07:13:59;;;;;;;8.65;4.13;;;25.30;58.20;;;;;;5029026;28;20037;-58
2022/08/12 07:16:25;;;;;;;6.97;4.00;;;25.30;58.20;;;;;;5026173;28;20036;-58
2022/08/12 07:18:52;;;;;;;6.78;4.30;;;25.30;58.20;;;;;;5027438;28;20021;-58
2022/08/12 07:21:18;;;;;;;6.82;4.07;;;25.30;58.30;;;;;;5028110;28;20417;-58
2022/08/12 07:23:44;;;;;;;8.50;4.13;;;25.40;58.40;;;;;;5027138;28;20033;-58
2022/08/12 07:26:10;;;;;;;5.80;3.78;;;25.30;58.30;;;;;;5024553;28;20048;-58
2022/08/12 07:28:38;;;;;;;7.38;4.15;;;25.30;58.30;;;;;;5025283;28;20035;-59
2022/08/12 07:31:07;;;;;;;7.22;4.32;;;25.30;58.30;;;;;;5026437;28;20088;-58
2022/08/12 07:33:37;;;;;;;6.70;3.97;;;25.30;58.40;;;;;;5027618;28;20083;-58
2022/08/12 07:36:05;;;;;;;7.32;3.78;;;25.30;58.40;;;;;;5027013;28;20037;-58
2022/08/12 07:38:35;;;;;;;8.43;4.20;;;25.30;58.40;;;;;;5030641;28;20105;-58
2022/08/12 07:41:05;;;;;;;8.52;4.28;;;25.30;58.40;;;;;;5028935;28;20037;-58
2022/08/12 07:43:32;;;;;;;7.40;4.18;;;25.30;58.40;;;;;;5026824;28;20446;-58
2022/08/12 07:45:59;;;;;;;6.28;4.00;;;25.30;58.30;;;;;;5028715;28;20116;-58
2022/08/12 07:48:25;;;;;;;6.75;3.90;;;25.30;58.80;;;;;;5022803;28;20033;-58
2022/08/12 07:50:51;;;;;;;7.05;4.07;;;25.30;58.30;;;;;;5027674;28;20030;-58
2022/08/12 07:53:20;;;;;;;6.38;4.00;;;25.40;58.30;;;;;;5027038;28;20017;-58
2022/08/12 07:55:47;;;;;;;6.55;3.90;;;25.30;58.20;;;;;;5026584;28;20714;-58
2022/08/12 07:58:14;;;;;;;5.95;3.97;;;25.30;58.20;;;;;;5028261;28;20065;-59
2022/08/12 08:00:39;;;;;;;7.10;4.15;;;25.30;58.30;;;;;;5026266;28;20591;-58
2022/08/12 08:03:08;;;;;;;7.13;3.95;;;25.30;58.20;;;;;;5026940;28;20033;-58
2022/08/12 08:05:38;;;;;;;6.88;4.18;;;25.40;58.30;;;;;;5025340;28;20025;-58
2022/08/12 08:08:20;;;;;;;6.40;4.18;;;25.30;58.10;;;;;;5027225;28;20069;-58
2022/08/12 08:10:47;;;;;;;6.45;3.60;;;25.40;58.20;;;;;;5026996;28;20037;-58
2022/08/12 08:13:13;;;;;;;6.45;4.18;;;25.30;58.10;;;;;;5025826;28;20109;-58
2022/08/12 08:15:39;;;;;;;6.75;3.95;;;25.40;58.10;;;;;;5027547;28;20128;-58
2022/08/12 08:18:07;;;;;;;7.75;4.18;;;25.40;58.20;;;;;;5026321;28;20034;-59
2022/08/12 08:20:40;;;;;;;7.32;4.10;;;25.40;58.10;;;;;;5026934;28;20620;-58
2022/08/12 08:23:17;;;;;;;5.85;3.88;;;25.40;58.10;;;;;;5024014;28;20018;-58
2022/08/12 08:25:44;;;;;;;6.28;3.63;;;25.40;58.10;;;;;;5023328;28;20506;-58
2022/08/12 08:28:15;;;;;;;6.65;4.32;;;25.40;58.00;;;;;;5026221;28;20022;-58
2022/08/12 08:30:43;;;;;;;6.93;4.00;;;25.40;58.00;;;;;;5027569;28;20033;-59
2022/08/12 08:33:10;;;;;;;7.78;3.80;;;25.40;58.10;;;;;;5025372;28;20108;-58
2022/08/12 08:35:37;;;;;;;9.85;4.40;;;25.40;58.40;;;;;;5025552;28;20060;-59
2022/08/12 08:38:16;;;;;;;7.50;4.35;;;25.40;58.60;;;;;;5027373;28;20041;-59
2022/08/12 08:43:28;;;;;;;7.40;4.00;;;25.40;58.50;;;;;;5027404;28;20180;-59
2022/08/12 08:45:55;;;;;;;7.63;4.60;;;25.50;58.60;;;;;;5022372;28;20104;-61
2022/08/12 08:48:21;;;;;;;11.80;5.00;;;25.50;58.50;;;;;;5030261;28;20048;-61
2022/08/12 08:50:47;;;;;;;8.38;4.50;;;25.50;58.60;;;;;;5026792;28;20120;-61
2022/08/12 08:53:12;;;;;;;11.55;4.78;;;25.50;58.60;;;;;;5023446;28;20100;-61
2022/08/12 08:55:39;;;;;;;9.80;4.93;;;25.50;58.70;;;;;;5026346;28;20057;-61
2022/08/12 08:58:07;;;;;;;10.43;4.65;;;25.50;58.70;;;;;;5026582;28;20033;-61
2022/08/12 09:00:33;;;;;;;9.93;4.65;;;25.50;58.70;;;;;;5025930;28;20394;-61
2022/08/12 09:03:02;;;;;;;12.55;5.00;;;25.60;58.70;;;;;;5026255;28;20104;-61
2022/08/12 09:05:28;;;;;;;9.57;4.95;;;25.60;58.80;;;;;;5024946;28;20115;-61
2022/08/12 09:07:55;;;;;;;9.60;4.72;;;25.50;58.70;;;;;;5025625;28;20117;-62
2022/08/12 09:10:21;;;;;;;10.85;5.30;;;25.60;58.70;;;;;;5025428;28;20120;-61
2022/08/12 09:15:31;;;;;;;10.88;5.05;;;25.60;58.70;;;;;;5025274;28;20032;-61
2022/08/12 09:17:59;;;;;;;13.63;5.32;;;25.60;58.70;;;;;;5024769;28;20494;-61
2022/08/12 09:20:27;;;;;;;11.10;5.07;;;25.60;58.70;;;;;;5023755;28;20039;-61
2022/08/12 09:22:53;;;;;;;11.70;5.45;;;25.60;58.70;;;;;;5050466;28;20018;-61
2022/08/12 09:25:21;;;;;;;11.55;5.50;;;25.70;58.70;;;;;;5024927;28;20029;-61
2022/08/12 09:27:46;;;;;;;13.95;5.30;;;25.70;58.80;;;;;;5024910;28;20112;-60
2022/08/12 09:30:14;;;;;;;11.38;5.15;;;25.70;58.80;;;;;;5024921;28;20144;-60
2022/08/12 09:32:49;;;;;;;12.10;4.85;;;25.70;59.80;;;;;;5024293;28;20831;-61
2022/08/12 09:35:32;;;;;;;10.93;5.53;;;25.80;58.80;;;;;;5025932;28;20053;-61
2022/08/12 09:38:00;;;;;;;12.32;5.47;;;25.80;58.80;;;;;;5028792;28;20417;-61
2022/08/12 09:40:26;;;;;;;11.45;5.25;;;25.80;58.80;;;;;;5030041;28;20120;-61
2022/08/12 09:45:36;;;;;;;11.82;5.53;;;25.80;58.80;;;;;;5028308;28;20862;-61
2022/08/12 09:48:07;;;;;;;11.88;5.68;;;25.80;58.80;;;;;;5027478;28;20124;-61
2022/08/12 09:50:33;;;;;;;14.48;5.88;;;25.80;58.70;;;;;;5028919;28;20033;-61
2022/08/12 09:53:10;;;;;;;12.15;5.85;;;25.80;58.90;;;;;;5039373;28;20041;-61
2022/08/12 09:55:36;;;;;;;13.65;5.53;;;25.90;58.80;;;;;;5028805;28;20049;-61
2022/08/12 09:58:04;;;;;;;11.13;5.88;;;25.90;58.80;;;;;;5030929;28;20064;-61
2022/08/12 10:00:33;;;;;;;14.82;5.65;;;25.90;58.80;;;;;;5022699;28;20033;-61
2022/08/12 10:03:04;;;;;;;9.13;5.13;;;25.90;58.70;;;;;;5024280;28;20084;-61
2022/08/12 10:05:35;;;;;;;10.98;5.13;;;26.00;58.70;;;;;;5022704;28;20500;-61
2022/08/12 10:08:04;;;;;;;11.30;5.40;;;26.00;58.70;;;;;;5040300;28;20032;-61
2022/08/12 10:10:30;;;;;;;12.05;5.32;;;26.00;58.60;;;;;;5027559;28;20130;-61
2022/08/12 10:15:43;;;;;;;11.07;5.07;;;26.10;58.50;;;;;;5025979;28;20120;-61
2022/08/12 10:18:11;;;;;;;10.07;4.93;;;26.10;58.40;;;;;;5027976;28;20060;-62
2022/08/12 10:20:38;;;;;;;10.07;5.07;;;26.10;58.30;;;;;;5026293;28;20021;-61
2022/08/12 10:23:04;;;;;;;12.27;5.40;;;26.10;58.20;;;;;;5028805;28;20026;-61
2022/08/12 10:30:58;;;;;;;8.93;5.28;;;26.20;58.30;;;;;;5026778;28;20049;-61
2022/08/12 10:33:24;;;;;;;10.10;5.18;;;26.20;58.20;;;;;;5022557;28;20017;-61
2022/08/12 10:35:52;;;;;;;10.63;5.25;;;26.20;58.20;;;;;;5028809;28;20417;-61
2022/08/12 10:38:18;;;;;;;13.18;5.43;;;26.20;58.10;;;;;;5028228;28;20482;-61
2022/08/12 10:43:41;;;;;;;11.88;5.97;;;26.30;58.10;;;;;;5025559;28;20056;-61
2022/08/12 10:46:07;;;;;;;10.43;5.13;;;26.20;58.90;;;;;;5027616;28;20113;-61
2022/08/12 10:48:33;;;;;;;10.20;5.45;;;26.30;58.10;;;;;;5028055;28;20076;-61
2022/08/12 10:51:02;;;;;;;8.45;4.95;;;26.30;58.00;;;;;;5026237;28;20033;-61
2022/08/12 10:53:32;;;;;;;9.85;4.90;;;26.30;58.00;;;;;;5027001;28;20076;-61
2022/08/12 10:55:58;;;;;;;13.07;4.90;;;26.30;58.00;;;;;;5028590;28;20510;-61
2022/08/12 10:58:23;;;;;;;11.55;5.03;;;26.40;58.10;;;;;;5027545;28;20486;-61
2022/08/12 11:00:49;;;;;;;10.75;5.25;;;26.40;58.10;;;;;;5028822;28;20045;-61
2022/08/12 11:03:16;;;;;;;9.48;4.75;;;26.40;58.10;;;;;;5028597;28;20323;-61
2022/08/12 11:05:43;;;;;;;11.20;5.07;;;26.40;58.10;;;;;;5028772;28;20493;-62
2022/08/12 11:08:11;;;;;;;10.10;5.32;;;26.40;58.10;;;;;;5029225;28;20025;-62
2022/08/12 11:10:37;;;;;;;11.30;5.22;;;26.40;58.10;;;;;;5027667;28;20700;-61
2022/08/12 11:13:02;;;;;;;9.95;5.13;;;26.40;58.10;;;;;;5027627;28;20017;-62
2022/08/12 11:15:28;;;;;;;11.70;5.25;;;26.40;58.00;;;;;;5028129;28;20037;-61
2022/08/12 11:17:53;;;;;;;10.63;4.60;;;26.40;58.10;;;;;;5027785;28;20036;-61
2022/08/12 11:20:19;;;;;;;8.68;4.40;;;26.40;58.10;;;;;;5027799;28;20486;-61
2022/08/12 11:22:55;;;;;;;10.02;5.03;;;26.50;58.20;;;;;;5027415;28;20029;-61
2022/08/12 11:25:21;;;;;;;9.52;4.60;;;26.50;58.10;;;;;;5028087;28;20022;-61
2022/08/12 11:27:47;;;;;;;10.43;5.20;;;26.50;58.10;;;;;;5027650;28;20025;-61
2022/08/12 11:30:12;;;;;;;8.35;4.72;;;26.50;58.20;;;;;;5027882;28;20482;-61
2022/08/12 11:32:38;;;;;;;9.82;4.78;;;26.50;58.10;;;;;;5027387;28;20645;-61
2022/08/12 11:35:04;;;;;;;9.88;5.10;;;26.50;58.10;;;;;;5022776;28;20029;-62
2022/08/12 11:37:32;;;;;;;9.05;4.90;;;26.60;58.10;;;;;;5027063;28;20490;-61
2022/08/12 11:39:58;;;;;;;13.23;5.10;;;26.60;58.10;;;;;;5025374;28;20033;-61
2022/08/12 11:42:23;;;;;;;11.30;5.05;;;26.60;58.00;;;;;;5025240;28;20532;-61
2022/08/12 11:44:49;;;;;;;9.70;4.78;;;26.60;58.20;;;;;;5030053;28;20022;-61
2022/08/12 11:47:14;;;;;;;11.30;5.10;;;26.60;58.20;;;;;;5028487;28;20017;-61
2022/08/12 11:49:40;;;;;;;7.97;4.32;;;26.60;58.30;;;;;;5023714;28;20629;-61
2022/08/12 11:52:07;;;;;;;11.57;5.13;;;26.60;58.30;;;;;;5026846;28;20468;-60
2022/08/12 11:54:33;;;;;;;10.32;5.30;;;26.70;58.40;;;;;;5026458;28;20139;-61
2022/08/12 11:56:59;;;;;;;10.77;5.20;;;26.70;58.40;;;;;;5026480;28;20053;-57
2022/08/12 11:59:24;;;;;;;11.35;5.07;;;26.70;58.30;;;;;;5024793;28;20148;-61
2022/08/12 12:01:50;;;;;;;10.05;4.60;;;26.70;58.30;;;;;;5027840;28;20082;-61
2022/08/12 12:04:16;;;;;;;10.80;5.32;;;26.80;58.40;;;;;;5026525;28;20037;-61
2022/08/12 12:06:42;;;;;;;14.77;5.47;;;26.80;58.40;;;;;;5025085;28;20510;-61
2022/08/12 12:09:08;;;;;;;10.07;4.95;;;26.80;58.40;;;;;;5024730;28;20084;-61
2022/08/12 12:11:33;;;;;;;9.55;5.05;;;26.80;58.30;;;;;;5027100;28;20025;-60
2022/08/12 12:13:59;;;;;;;9.35;4.72;;;26.80;58.20;;;;;;5026798;28;20071;-62
2022/08/12 12:16:25;;;;;;;13.13;5.18;;;26.80;58.10;;;;;;5025760;28;20037;-62
2022/08/12 12:18:50;;;;;;;11.43;4.38;;;26.80;58.10;;;;;;5025792;28;20029;-61
2022/08/12 12:21:16;;;;;;;11.43;4.88;;;26.90;59.20;;;;;;5025497;28;20051;-60
2022/08/12 12:23:42;;;;;;;9.93;5.03;;;26.90;58.00;;;;;;5024917;28;20033;-62
2022/08/12 12:26:07;;;;;;;10.45;4.50;;;26.90;58.00;;;;;;5024219;28;20022;-60
2022/08/12 12:28:33;;;;;;;9.05;4.85;;;27.00;58.00;;;;;;5025166;28;20040;-61
2022/08/12 12:30:59;;;;;;;9.35;4.65;;;27.00;58.10;;;;;;5021181;28;20041;-60
2022/08/12 12:33:29;;;;;;;9.23;4.65;;;27.00;58.10;;;;;;5054057;28;20420;-60
2022/08/12 12:35:57;;;;;;;8.88;4.60;;;27.00;58.10;;;;;;4992102;28;21461;-60
2022/08/12 12:38:22;;;;;;;11.40;4.55;;;27.00;58.20;;;;;;5025910;28;20041;-62
2022/08/12 12:40:48;;;;;;;11.02;5.45;;;27.10;58.40;;;;;;5025638;28;20045;-61
2022/08/12 12:43:14;;;;;;;9.45;5.05;;;27.10;58.90;;;;;;5022792;28;20026;-61
2022/08/12 12:45:40;;;;;;;10.38;5.55;;;27.10;58.60;;;;;;5023483;28;20402;-61
2022/08/12 12:48:08;;;;;;;9.70;5.10;;;27.20;58.90;;;;;;5026116;28;20037;-61
2022/08/12 12:50:46;;;;;;;10.02;5.10;;;27.20;59.40;;;;;;5025442;28;20040;-59
2022/08/12 12:53:17;;;;;;;9.00;5.00;;;27.20;59.30;;;;;;5025885;28;20117;-59
2022/08/12 12:55:45;;;;;;;11.35;5.28;;;27.20;59.30;;;;;;5025721;28;20046;-59
2022/08/12 12:58:15;;;;;;;9.90;4.90;;;27.20;59.20;;;;;;5021283;28;20034;-59
2022/08/12 13:00:43;;;;;;;8.82;4.90;;;27.30;59.10;;;;;;5025832;28;20045;-59
2022/08/12 13:03:11;;;;;;;10.05;4.70;;;27.20;59.00;;;;;;5024266;28;20541;-59
2022/08/12 13:05:37;;;;;;;8.00;4.75;;;27.30;58.90;;;;;;5025302;28;20100;-59
2022/08/12 13:08:17;;;;;;;9.77;5.00;;;27.30;58.80;;;;;;5025186;28;20033;-59
2022/08/12 13:10:42;;;;;;;10.38;5.00;;;27.30;58.80;;;;;;5024646;28;20064;-59
2022/08/12 13:13:08;;;;;;;8.32;4.97;;;27.30;58.80;;;;;;5056683;28;20462;-59
2022/08/12 13:15:34;;;;;;;10.02;5.05;;;27.30;58.70;;;;;;5024487;28;20037;-59
2022/08/12 13:18:03;;;;;;;8.23;4.55;;;27.30;58.70;;;;;;5022462;28;20033;-59
2022/08/12 13:20:30;;;;;;;8.57;4.80;;;27.30;58.70;;;;;;5025341;28;20025;-59
2022/08/12 13:22:56;;;;;;;8.63;5.07;;;27.30;58.60;;;;;;5024324;28;20034;-59
2022/08/12 13:25:23;;;;;;;10.43;4.97;;;27.30;58.50;;;;;;5025467;28;20021;-59
2022/08/12 13:27:48;;;;;;;9.38;5.10;;;27.30;58.50;;;;;;5025180;28;20433;-58
2022/08/12 13:30:22;;;;;;;9.82;4.68;;;27.30;58.50;;;;;;5023841;28;20033;-59
2022/08/12 13:32:58;;;;;;;8.57;4.60;;;27.30;58.50;;;;;;5023696;28;20025;-59
2022/08/12 13:35:28;;;;;;;7.90;4.63;;;27.40;59.60;;;;;;5024773;28;20071;-59
2022/08/12 13:37:54;;;;;;;10.20;4.90;;;27.40;58.80;;;;;;5009053;28;20029;-59
2022/08/12 13:40:31;;;;;;;9.90;4.63;;;27.40;58.70;;;;;;5023915;28;20041;-59
2022/08/12 13:42:56;;;;;;;8.75;4.60;;;27.40;58.60;;;;;;5022913;28;20032;-59
2022/08/12 13:45:25;;;;;;;9.18;4.78;;;27.40;58.60;;;;;;5024468;28;20033;-59
2022/08/12 13:48:01;;;;;;;8.68;4.72;;;27.40;58.60;;;;;;5022570;28;20018;-59
2022/08/12 13:50:32;;;;;;;10.18;4.80;;;27.40;58.80;;;;;;5020723;28;20044;-58
2022/08/12 13:53:08;;;;;;;10.73;5.00;;;27.40;59.20;;;;;;5023717;28;20026;-59
2022/08/12 13:55:35;;;;;;;10.35;4.93;;;27.40;59.00;;;;;;5024508;28;20057;-59
2022/08/12 13:58:04;;;;;;;9.55;4.78;;;27.50;59.20;;;;;;5021804;28;20112;-59
2022/08/12 14:00:30;;;;;;;12.35;5.03;;;27.50;59.10;;;;;;5023192;28;20397;-59
2022/08/12 14:02:55;;;;;;;11.70;4.95;;;27.50;59.00;;;;;;5047693;28;20026;-59
2022/08/12 14:05:21;;;;;;;11.52;5.35;;;27.50;58.90;;;;;;5023867;28;20021;-59
2022/08/12 14:07:57;;;;;;;10.52;5.20;;;27.50;58.70;;;;;;5025063;28;20026;-59
2022/08/12 14:10:40;;;;;;;8.93;4.68;;;27.50;58.50;;;;;;5019748;28;20068;-59
2022/08/12 14:13:10;;;;;;;11.90;4.60;;;27.50;58.50;;;;;;5022095;28;20125;-60
2022/08/12 14:15:41;;;;;;;11.50;4.80;;;27.50;58.50;;;;;;5021389;28;20041;-59
2022/08/12 14:18:14;;;;;;;10.43;4.80;;;27.60;58.60;;;;;;5021096;28;20112;-59
2022/08/12 14:20:41;;;;;;;9.35;4.70;;;27.60;58.60;;;;;;5023054;28;20044;-59
2022/08/12 14:23:06;;;;;;;18.17;4.80;;;27.50;58.50;;;;;;5022193;28;20490;-61
2022/08/12 14:25:32;;;;;;;8.82;4.75;;;27.60;58.60;;;;;;5027145;28;20105;-60
2022/08/12 14:28:11;;;;;;;9.68;4.32;;;27.60;58.50;;;;;;5024844;28;20449;-71
2022/08/12 14:30:42;;;;;;;10.32;4.45;;;27.80;57.20;;;;;;5027569;28;20041;-69
2022/08/12 14:33:07;;;;;;;10.35;4.22;;;27.90;54.00;;;;;;5024542;28;20033;-68
2022/08/12 14:35:33;;;;;;;9.95;4.00;;;28.00;49.40;;;;;;5027609;28;20021;-69
2022/08/12 14:37:59;;;;;;;8.95;4.20;;;28.00;47.30;;;;;;5024881;28;20464;-69